createdAt,value
2019-03-29T00:00:22.869Z,5.60
2019-03-29T00:05:25.370Z,5.50
2019-03-29T00:10:27.171Z,5.50
2019-03-29T00:15:29.230Z,5.40
2019-03-29T00:20:30.771Z,5.40
2019-03-29T00:25:33.063Z,5.40
2019-03-29T00:30:34.701Z,5.30
2019-03-29T00:35:36.019Z,5.30
2019-03-29T00:40:37.511Z,5.20
2019-03-29T00:45:38.832Z,5.20
2019-03-29T00:50:40.318Z,5.20
2019-03-29T00:55:41.730Z,5.10
2019-03-29T01:00:43.077Z,5.10
2019-03-29T01:05:44.706Z,5.10
2019-03-29T01:10:48.904Z,5.00
2019-03-29T01:15:50.615Z,5.00
2019-03-29T01:20:52.184Z,4.90
2019-03-29T01:25:53.850Z,4.90
2019-03-29T01:30:55.314Z,4.90
2019-03-29T01:35:56.777Z,4.80
2019-03-29T01:41:01.009Z,4.80
2019-03-29T01:46:02.654Z,4.70
2019-03-29T01:51:04.335Z,4.70
2019-03-29T01:56:05.999Z,4.60
2019-03-29T02:01:07.408Z,4.60
2019-03-29T02:06:08.726Z,4.60
2019-03-29T02:11:10.260Z,4.60
2019-03-29T02:16:11.803Z,4.50
2019-03-29T02:21:13.506Z,4.50
2019-03-29T02:26:14.971Z,4.50
2019-03-29T02:31:16.485Z,4.50
2019-03-29T02:36:18.026Z,4.40
2019-03-29T02:41:21.336Z,4.40
2019-03-29T02:46:22.806Z,4.40
2019-03-29T02:51:24.164Z,4.30
2019-03-29T02:56:25.656Z,4.30
2019-03-29T03:01:27.227Z,4.20
2019-03-29T03:06:28.772Z,4.20
2019-03-29T03:11:30.643Z,4.10
2019-03-29T03:16:32.147Z,4.10
2019-03-29T03:21:33.466Z,4.10
2019-03-29T03:26:35.044Z,4.00
2019-03-29T03:31:36.735Z,4.00
2019-03-29T03:36:39.019Z,4.00
2019-03-29T03:41:42.385Z,3.90
2019-03-29T03:46:43.798Z,3.90
2019-03-29T03:51:48.645Z,3.90
2019-03-29T03:56:52.193Z,3.90
2019-03-29T04:01:53.683Z,3.80
2019-03-29T04:06:55.376Z,3.80
2019-03-29T04:11:56.936Z,3.70
2019-03-29T04:17:00.025Z,3.70
2019-03-29T04:22:01.345Z,3.70
2019-03-29T04:27:03.951Z,3.60
2019-03-29T04:32:05.734Z,3.60
2019-03-29T04:37:07.172Z,3.60
2019-03-29T04:42:08.785Z,3.50
2019-03-29T04:47:10.345Z,3.50
2019-03-29T04:52:11.989Z,3.50
2019-03-29T04:57:13.519Z,3.40
2019-03-29T05:02:14.823Z,3.40
2019-03-29T05:07:16.448Z,3.40
2019-03-29T05:12:17.763Z,3.40
2019-03-29T05:17:21.546Z,3.30
2019-03-29T05:22:22.951Z,3.40
2019-03-29T05:27:25.890Z,3.30
2019-03-29T05:32:27.316Z,3.30
2019-03-29T05:37:29.084Z,3.30
2019-03-29T05:42:30.507Z,3.30
2019-03-29T05:47:33.604Z,3.30
2019-03-29T05:52:35.151Z,3.30
2019-03-29T05:57:36.620Z,3.30
2019-03-29T06:02:38.150Z,3.30
2019-03-29T06:07:39.812Z,3.40
2019-03-29T06:12:43.250Z,3.40
2019-03-29T06:17:49.018Z,3.50
2019-03-29T06:22:49.519Z,3.60
2019-03-29T06:27:50.884Z,3.60
2019-03-29T06:32:52.216Z,3.80
2019-03-29T06:37:54.369Z,3.90
2019-03-29T06:42:57.676Z,4.00
2019-03-29T06:47:59.323Z,4.20
2019-03-29T06:53:01.031Z,4.30
2019-03-29T06:58:02.808Z,4.60
2019-03-29T07:03:04.715Z,4.80
2019-03-29T07:08:06.265Z,5.00
2019-03-29T07:13:07.707Z,5.20
2019-03-29T07:18:17.188Z,5.50
2019-03-29T07:23:18.943Z,5.90
2019-03-29T07:28:20.433Z,6.30
2019-03-29T07:33:21.987Z,6.80
2019-03-29T07:38:23.957Z,7.20
2019-03-29T07:43:25.568Z,7.60
2019-03-29T07:48:26.985Z,8.10
2019-03-29T07:53:28.686Z,8.50
2019-03-29T07:58:30.131Z,9.10
2019-03-29T08:03:32.031Z,9.60
2019-03-29T08:08:51.974Z,10.10
2019-03-29T08:13:53.365Z,10.70
2019-03-29T08:18:54.883Z,11.20
2019-03-29T08:23:56.350Z,11.60
2019-03-29T08:28:57.734Z,12.00
2019-03-29T08:34:01.930Z,12.30
2019-03-29T08:39:06.007Z,12.70
2019-03-29T08:44:07.361Z,13.10
2019-03-29T08:49:08.863Z,13.30
2019-03-29T08:54:10.406Z,13.60
2019-03-29T08:59:11.975Z,13.90
2019-03-29T09:04:13.512Z,14.20
2019-03-29T09:09:15.564Z,14.50
2019-03-29T09:14:17.197Z,14.80
2019-03-29T09:19:18.491Z,14.90
2019-03-29T09:24:22.396Z,15.10
2019-03-29T09:29:37.056Z,15.10
2019-03-29T09:34:53.797Z,15.30
2019-03-29T09:39:56.139Z,15.40
2019-03-29T09:44:57.451Z,15.40
2019-03-29T09:49:59.091Z,15.40
2019-03-29T09:55:00.602Z,15.20
2019-03-29T10:00:18.137Z,15.20
2019-03-29T10:05:10.500Z,15.10
2019-03-29T10:10:12.345Z,14.90
2019-03-29T10:15:13.859Z,14.90
2019-03-29T10:20:31.580Z,14.80
2019-03-29T10:25:41.851Z,14.60
2019-03-29T10:31:01.135Z,14.60
2019-03-29T10:36:23.692Z,14.60
2019-03-29T10:41:38.090Z,14.50
2019-03-29T10:46:39.688Z,14.50
2019-03-29T10:51:41.892Z,14.50
2019-03-29T10:56:43.256Z,14.50
2019-03-29T11:01:44.827Z,14.50
2019-03-29T11:06:46.527Z,14.60
2019-03-29T11:11:48.019Z,14.60
2019-03-29T11:16:49.389Z,14.70
2019-03-29T11:21:51.240Z,14.70
2019-03-29T11:26:52.668Z,14.80
2019-03-29T11:31:57.474Z,14.80
2019-03-29T11:36:59.290Z,14.90
2019-03-29T11:42:03.314Z,14.90
2019-03-29T11:47:04.753Z,14.90
2019-03-29T11:52:06.251Z,15.00
2019-03-29T11:57:07.679Z,15.00
2019-03-29T12:02:11.370Z,15.00
2019-03-29T12:07:13.368Z,15.10
2019-03-29T12:12:14.845Z,15.00
2019-03-29T12:17:16.191Z,15.10
2019-03-29T12:22:18.032Z,15.20
2019-03-29T12:27:19.455Z,15.20
2019-03-29T12:32:21.099Z,15.20
2019-03-29T12:37:22.528Z,15.30
2019-03-29T12:42:24.066Z,15.30
2019-03-29T12:47:25.780Z,15.30
2019-03-29T12:52:27.419Z,15.40
2019-03-29T12:57:29.075Z,15.40
2019-03-29T13:02:30.475Z,15.50
2019-03-29T13:07:32.199Z,15.50
2019-03-29T13:12:33.869Z,15.60
2019-03-29T13:17:35.461Z,15.60
2019-03-29T13:22:38.796Z,15.50
2019-03-29T13:27:40.272Z,15.60
2019-03-29T13:32:41.779Z,15.50
2019-03-29T13:37:43.298Z,15.50
2019-03-29T13:42:45.511Z,15.50
2019-03-29T13:47:48.445Z,15.50
2019-03-29T13:52:49.783Z,15.50
2019-03-29T13:57:51.753Z,15.50
2019-03-29T14:02:53.172Z,15.60
2019-03-29T14:07:54.696Z,15.60
2019-03-29T14:12:56.361Z,15.60
2019-03-29T14:17:57.874Z,15.60
2019-03-29T14:23:02.781Z,15.70
2019-03-29T14:28:04.257Z,15.70
2019-03-29T14:33:05.750Z,15.80
2019-03-29T14:38:07.123Z,15.80
2019-03-29T14:43:08.551Z,15.80
2019-03-29T14:48:10.145Z,15.80
2019-03-29T14:53:11.771Z,15.90
2019-03-29T14:58:13.156Z,15.90
2019-03-29T15:03:14.710Z,16.00
2019-03-29T15:08:16.251Z,16.00
2019-03-29T15:13:18.114Z,16.00
2019-03-29T15:18:19.524Z,16.00
2019-03-29T15:23:21.077Z,16.00
2019-03-29T15:28:22.722Z,16.00
2019-03-29T15:33:24.211Z,16.00
2019-03-29T15:38:25.515Z,16.00
2019-03-29T15:43:26.869Z,16.00
2019-03-29T15:48:28.533Z,16.00
2019-03-29T15:53:30.012Z,16.00
2019-03-29T15:58:31.516Z,16.10
2019-03-29T16:03:33.003Z,16.10
2019-03-29T16:08:34.467Z,16.10
2019-03-29T16:13:35.863Z,16.10
2019-03-29T16:18:37.257Z,16.00
2019-03-29T16:23:38.571Z,16.00
2019-03-29T16:28:39.900Z,16.00
2019-03-29T16:33:41.247Z,16.00
2019-03-29T16:38:42.779Z,16.00
2019-03-29T16:43:44.165Z,16.00
2019-03-29T16:48:46.072Z,15.90
2019-03-29T16:53:47.409Z,15.90
2019-03-29T16:58:48.733Z,15.80
2019-03-29T17:03:50.168Z,15.70
2019-03-29T17:08:51.612Z,15.70
2019-03-29T17:13:53.307Z,15.60
2019-03-29T17:18:54.774Z,15.60
2019-03-29T17:23:56.177Z,15.60
2019-03-29T17:28:57.608Z,15.50
2019-03-29T17:33:59.230Z,15.50
2019-03-29T17:39:00.521Z,15.40
2019-03-29T17:44:05.831Z,15.30
2019-03-29T17:49:07.408Z,15.20
2019-03-29T17:54:08.880Z,15.10
2019-03-29T17:59:10.929Z,14.90
2019-03-29T18:04:12.494Z,14.70
2019-03-29T18:09:14.166Z,14.60
2019-03-29T18:14:15.644Z,14.40
2019-03-29T18:19:17.397Z,14.40
2019-03-29T18:24:19.292Z,14.30
2019-03-29T18:29:21.006Z,14.30
2019-03-29T18:34:24.840Z,14.20
2019-03-29T18:39:26.850Z,14.10
2019-03-29T18:44:28.318Z,14.00
2019-03-29T18:49:49.640Z,13.80
2019-03-29T18:54:51.162Z,13.50
2019-03-29T18:59:52.593Z,13.20
2019-03-29T19:04:54.099Z,13.00
2019-03-29T19:09:55.848Z,12.80
2019-03-29T19:14:57.383Z,12.60
2019-03-29T19:19:59.117Z,12.40
2019-03-29T19:25:00.631Z,12.20
2019-03-29T19:30:06.829Z,12.00
2019-03-29T19:35:09.136Z,11.90
2019-03-29T19:40:11.137Z,11.70
2019-03-29T19:45:14.588Z,11.60
2019-03-29T19:50:16.872Z,11.40
2019-03-29T19:55:18.390Z,11.30
2019-03-29T20:00:28.857Z,11.10
2019-03-29T20:05:30.360Z,11.00
2019-03-29T20:10:31.939Z,10.80
2019-03-29T20:15:36.182Z,10.70
2019-03-29T20:20:37.870Z,10.50
2019-03-29T20:25:39.331Z,10.40
2019-03-29T20:30:41.373Z,10.30
2019-03-29T20:35:42.887Z,10.20
2019-03-29T20:40:45.160Z,10.00
2019-03-29T20:45:46.678Z,9.90
2019-03-29T20:50:48.067Z,9.80
2019-03-29T20:55:49.682Z,9.80
2019-03-29T21:00:51.222Z,9.60
2019-03-29T21:05:52.769Z,9.60
2019-03-29T21:10:56.238Z,9.50
2019-03-29T21:15:58.527Z,9.50
2019-03-29T21:20:59.862Z,9.40
2019-03-29T21:26:03.930Z,9.30
2019-03-29T21:31:05.343Z,9.30
2019-03-29T21:36:07.205Z,9.20
2019-03-29T21:41:08.692Z,9.10
2019-03-29T21:46:10.186Z,9.10
2019-03-29T21:51:12.688Z,9.00
2019-03-29T21:56:16.042Z,8.90
2019-03-29T22:01:19.412Z,8.80
2019-03-29T22:06:21.026Z,8.80
2019-03-29T22:11:25.088Z,8.80
2019-03-29T22:16:26.919Z,8.80
2019-03-29T22:21:28.842Z,8.80
2019-03-29T22:26:30.672Z,8.80
2019-03-29T22:31:32.563Z,8.90
2019-03-29T22:36:34.074Z,9.10
2019-03-29T22:41:35.955Z,9.10
2019-03-29T22:46:39.446Z,9.10
2019-03-29T22:51:41.118Z,9.10
2019-03-29T22:56:42.918Z,9.20
2019-03-29T23:01:47.678Z,9.30
2019-03-29T23:06:49.106Z,9.50
2019-03-29T23:11:50.543Z,9.50
2019-03-29T23:16:52.069Z,9.60
2019-03-29T23:21:53.427Z,9.60
2019-03-29T23:26:55.003Z,9.70
2019-03-29T23:31:56.480Z,9.70
2019-03-29T23:37:16.616Z,9.70
2019-03-29T23:42:17.926Z,9.70
2019-03-29T23:47:20.625Z,9.70
2019-03-29T23:52:22.157Z,9.70
2019-03-29T23:57:23.639Z,9.70
